sensor_id;sensor_type;location;lat;lon;timestamp;temperature;humidity
53876;DHT22;39789;53.216;5.624;2022-09-28T00:00:12;8.90;99.90
53876;DHT22;39789;53.216;5.624;2022-09-28T00:02:37;8.90;99.90
53876;DHT22;39789;53.216;5.624;2022-09-28T00:05:03;8.90;99.90
53876;DHT22;39789;53.216;5.624;2022-09-28T00:07:29;8.90;99.90
53876;DHT22;39789;53.216;5.624;2022-09-28T00:09:54;8.90;99.90
53876;DHT22;39789;53.216;5.624;2022-09-28T00:12:20;8.90;99.90
53876;DHT22;39789;53.216;5.624;2022-09-28T00:14:46;8.90;99.90
53876;DHT22;39789;53.216;5.624;2022-09-28T00:17:12;8.90;99.90
53876;DHT22;39789;53.216;5.624;2022-09-28T00:19:38;8.90;99.90
53876;DHT22;39789;53.216;5.624;2022-09-28T00:22:05;8.90;99.90
53876;DHT22;39789;53.216;5.624;2022-09-28T00:24:31;9.40;99.90
53876;DHT22;39789;53.216;5.624;2022-09-28T00:26:57;8.80;99.90
53876;DHT22;39789;53.216;5.624;2022-09-28T00:29:29;8.80;99.90
53876;DHT22;39789;53.216;5.624;2022-09-28T00:32:08;8.80;99.90
53876;DHT22;39789;53.216;5.624;2022-09-28T00:34:36;8.80;99.90
53876;DHT22;39789;53.216;5.624;2022-09-28T00:37:03;8.80;99.90
53876;DHT22;39789;53.216;5.624;2022-09-28T00:39:29;8.90;99.90
53876;DHT22;39789;53.216;5.624;2022-09-28T00:42:00;8.90;99.90
53876;DHT22;39789;53.216;5.624;2022-09-28T00:44:36;8.90;99.90
53876;DHT22;39789;53.216;5.624;2022-09-28T00:50:28;8.90;99.90
53876;DHT22;39789;53.216;5.624;2022-09-28T00:53:02;8.90;99.90
53876;DHT22;39789;53.216;5.624;2022-09-28T00:55:37;8.90;99.90
53876;DHT22;39789;53.216;5.624;2022-09-28T00:58:06;8.90;99.90
53876;DHT22;39789;53.216;5.624;2022-09-28T01:00:33;8.90;99.90
53876;DHT22;39789;53.216;5.624;2022-09-28T01:02:58;8.90;99.90
53876;DHT22;39789;53.216;5.624;2022-09-28T01:05:25;8.90;99.90
53876;DHT22;39789;53.216;5.624;2022-09-28T01:07:52;8.90;99.90
53876;DHT22;39789;53.216;5.624;2022-09-28T01:10:19;8.80;99.90
53876;DHT22;39789;53.216;5.624;2022-09-28T01:12:45;8.80;99.90
53876;DHT22;39789;53.216;5.624;2022-09-28T01:15:11;8.80;99.90
53876;DHT22;39789;53.216;5.624;2022-09-28T01:20:37;8.80;99.90
53876;DHT22;39789;53.216;5.624;2022-09-28T01:28:45;8.70;99.90
53876;DHT22;39789;53.216;5.624;2022-09-28T01:31:14;8.80;99.90
53876;DHT22;39789;53.216;5.624;2022-09-28T01:33:47;8.80;99.90
53876;DHT22;39789;53.216;5.624;2022-09-28T01:36:37;8.80;99.90
53876;DHT22;39789;53.216;5.624;2022-09-28T01:39:23;8.80;99.90
53876;DHT22;39789;53.216;5.624;2022-09-28T01:41:51;8.80;99.90
53876;DHT22;39789;53.216;5.624;2022-09-28T01:44:20;8.80;99.90
53876;DHT22;39789;53.216;5.624;2022-09-28T01:46:48;8.70;99.90
53876;DHT22;39789;53.216;5.624;2022-09-28T01:49:37;8.80;99.90
53876;DHT22;39789;53.216;5.624;2022-09-28T01:52:23;8.70;99.90
53876;DHT22;39789;53.216;5.624;2022-09-28T01:55:00;8.70;99.90
53876;DHT22;39789;53.216;5.624;2022-09-28T01:57:38;8.70;99.90
53876;DHT22;39789;53.216;5.624;2022-09-28T02:00:06;8.70;99.90
53876;DHT22;39789;53.216;5.624;2022-09-28T02:03:00;8.70;99.90
53876;DHT22;39789;53.216;5.624;2022-09-28T02:05:32;8.60;99.90
53876;DHT22;39789;53.216;5.624;2022-09-28T02:10:51;8.40;99.90
53876;DHT22;39789;53.216;5.624;2022-09-28T02:13:21;8.40;99.90
53876;DHT22;39789;53.216;5.624;2022-09-28T02:16:32;8.30;99.90
53876;DHT22;39789;53.216;5.624;2022-09-28T02:18:59;8.30;99.90
53876;DHT22;39789;53.216;5.624;2022-09-28T02:21:31;8.30;99.90
53876;DHT22;39789;53.216;5.624;2022-09-28T02:24:02;8.30;99.90
53876;DHT22;39789;53.216;5.624;2022-09-28T02:26:34;8.20;99.90
53876;DHT22;39789;53.216;5.624;2022-09-28T02:29:02;8.20;99.90
53876;DHT22;39789;53.216;5.624;2022-09-28T02:31:28;8.20;99.90
53876;DHT22;39789;53.216;5.624;2022-09-28T02:33:56;8.20;99.90
53876;DHT22;39789;53.216;5.624;2022-09-28T02:36:23;8.10;99.90
53876;DHT22;39789;53.216;5.624;2022-09-28T02:38:49;8.10;99.90
53876;DHT22;39789;53.216;5.624;2022-09-28T02:44:20;8.20;99.90
53876;DHT22;39789;53.216;5.624;2022-09-28T02:46:53;8.10;99.90
53876;DHT22;39789;53.216;5.624;2022-09-28T02:52:37;8.10;99.90
53876;DHT22;39789;53.216;5.624;2022-09-28T03:00:36;8.10;99.90
53876;DHT22;39789;53.216;5.624;2022-09-28T03:03:17;8.00;99.90
53876;DHT22;39789;53.216;5.624;2022-09-28T03:06:02;8.00;99.90
53876;DHT22;39789;53.216;5.624;2022-09-28T03:08:35;7.90;99.90
53876;DHT22;39789;53.216;5.624;2022-09-28T03:11:08;7.90;99.90
53876;DHT22;39789;53.216;5.624;2022-09-28T03:13:37;8.00;99.90
53876;DHT22;39789;53.216;5.624;2022-09-28T03:16:14;8.00;99.90
53876;DHT22;39789;53.216;5.624;2022-09-28T03:18:40;8.00;99.90
53876;DHT22;39789;53.216;5.624;2022-09-28T03:21:06;8.00;99.90
53876;DHT22;39789;53.216;5.624;2022-09-28T03:23:32;8.00;99.90
53876;DHT22;39789;53.216;5.624;2022-09-28T03:25:58;8.00;99.90
53876;DHT22;39789;53.216;5.624;2022-09-28T03:28:24;8.00;99.90
53876;DHT22;39789;53.216;5.624;2022-09-28T03:30:50;8.00;99.90
53876;DHT22;39789;53.216;5.624;2022-09-28T03:33:15;8.00;99.90
53876;DHT22;39789;53.216;5.624;2022-09-28T03:35:43;8.00;99.90
53876;DHT22;39789;53.216;5.624;2022-09-28T03:38:10;8.00;99.90
53876;DHT22;39789;53.216;5.624;2022-09-28T03:40:35;8.00;99.90
53876;DHT22;39789;53.216;5.624;2022-09-28T03:43:01;8.00;99.90
53876;DHT22;39789;53.216;5.624;2022-09-28T03:45:26;8.00;99.90
53876;DHT22;39789;53.216;5.624;2022-09-28T03:47:52;8.10;99.90
53876;DHT22;39789;53.216;5.624;2022-09-28T03:50:17;8.10;99.90
53876;DHT22;39789;53.216;5.624;2022-09-28T03:52:43;8.10;99.90
53876;DHT22;39789;53.216;5.624;2022-09-28T03:55:09;8.20;99.90
53876;DHT22;39789;53.216;5.624;2022-09-28T03:57:35;8.20;99.90
53876;DHT22;39789;53.216;5.624;2022-09-28T04:00:03;8.20;99.90
53876;DHT22;39789;53.216;5.624;2022-09-28T04:02:29;8.30;99.90
53876;DHT22;39789;53.216;5.624;2022-09-28T04:04:54;8.30;99.90
53876;DHT22;39789;53.216;5.624;2022-09-28T04:07:21;8.30;99.90
53876;DHT22;39789;53.216;5.624;2022-09-28T04:09:47;8.30;99.90
53876;DHT22;39789;53.216;5.624;2022-09-28T04:12:12;8.40;99.90
53876;DHT22;39789;53.216;5.624;2022-09-28T04:14:38;8.40;99.90
53876;DHT22;39789;53.216;5.624;2022-09-28T04:17:03;8.40;99.90
53876;DHT22;39789;53.216;5.624;2022-09-28T04:19:30;8.40;99.90
53876;DHT22;39789;53.216;5.624;2022-09-28T04:21:56;8.50;99.90
53876;DHT22;39789;53.216;5.624;2022-09-28T04:24:22;8.50;99.90
53876;DHT22;39789;53.216;5.624;2022-09-28T04:26:47;8.50;99.90
53876;DHT22;39789;53.216;5.624;2022-09-28T04:29:14;8.50;99.90
53876;DHT22;39789;53.216;5.624;2022-09-28T04:31:45;8.50;99.90
53876;DHT22;39789;53.216;5.624;2022-09-28T04:34:13;8.50;99.90
53876;DHT22;39789;53.216;5.624;2022-09-28T04:36:39;8.50;99.90
53876;DHT22;39789;53.216;5.624;2022-09-28T04:39:05;8.50;99.90
53876;DHT22;39789;53.216;5.624;2022-09-28T04:41:31;8.50;99.90
53876;DHT22;39789;53.216;5.624;2022-09-28T04:43:57;8.60;99.90
53876;DHT22;39789;53.216;5.624;2022-09-28T04:46:23;8.60;99.90
53876;DHT22;39789;53.216;5.624;2022-09-28T04:48:49;8.60;99.90
53876;DHT22;39789;53.216;5.624;2022-09-28T04:51:14;8.70;99.90
53876;DHT22;39789;53.216;5.624;2022-09-28T04:53:40;8.70;99.90
53876;DHT22;39789;53.216;5.624;2022-09-28T04:56:10;8.70;99.90
53876;DHT22;39789;53.216;5.624;2022-09-28T04:58:37;8.70;99.90
53876;DHT22;39789;53.216;5.624;2022-09-28T05:01:09;8.70;99.90
53876;DHT22;39789;53.216;5.624;2022-09-28T05:03:35;8.70;99.90
53876;DHT22;39789;53.216;5.624;2022-09-28T05:06:01;8.70;99.90
53876;DHT22;39789;53.216;5.624;2022-09-28T05:08:27;8.70;99.90
53876;DHT22;39789;53.216;5.624;2022-09-28T05:11:02;8.70;99.90
53876;DHT22;39789;53.216;5.624;2022-09-28T05:13:28;8.70;99.90
53876;DHT22;39789;53.216;5.624;2022-09-28T05:15:56;8.70;99.90
53876;DHT22;39789;53.216;5.624;2022-09-28T05:18:21;8.60;99.90
53876;DHT22;39789;53.216;5.624;2022-09-28T05:20:47;8.60;99.90
53876;DHT22;39789;53.216;5.624;2022-09-28T05:23:13;8.60;99.90
53876;DHT22;39789;53.216;5.624;2022-09-28T05:25:40;8.60;99.90
53876;DHT22;39789;53.216;5.624;2022-09-28T05:28:06;8.60;99.90
53876;DHT22;39789;53.216;5.624;2022-09-28T05:30:33;8.60;99.90
53876;DHT22;39789;53.216;5.624;2022-09-28T05:32:59;8.60;99.90
53876;DHT22;39789;53.216;5.624;2022-09-28T05:35:24;8.60;99.90
53876;DHT22;39789;53.216;5.624;2022-09-28T05:37:50;8.60;99.90
53876;DHT22;39789;53.216;5.624;2022-09-28T05:40:16;8.60;99.90
53876;DHT22;39789;53.216;5.624;2022-09-28T05:42:41;8.60;99.90
53876;DHT22;39789;53.216;5.624;2022-09-28T05:45:08;8.60;99.90
53876;DHT22;39789;53.216;5.624;2022-09-28T05:47:42;8.60;99.90
53876;DHT22;39789;53.216;5.624;2022-09-28T05:50:09;8.60;99.90
53876;DHT22;39789;53.216;5.624;2022-09-28T05:52:37;8.60;99.90
53876;DHT22;39789;53.216;5.624;2022-09-28T05:55:04;8.50;99.90
53876;DHT22;39789;53.216;5.624;2022-09-28T05:57:30;8.60;99.90
53876;DHT22;39789;53.216;5.624;2022-09-28T05:59:55;8.60;99.90
53876;DHT22;39789;53.216;5.624;2022-09-28T06:02:21;8.80;99.90
53876;DHT22;39789;53.216;5.624;2022-09-28T06:04:47;8.90;99.90
53876;DHT22;39789;53.216;5.624;2022-09-28T06:07:14;9.00;99.90
53876;DHT22;39789;53.216;5.624;2022-09-28T06:09:39;9.00;99.90
53876;DHT22;39789;53.216;5.624;2022-09-28T06:12:15;9.20;99.90
53876;DHT22;39789;53.216;5.624;2022-09-28T06:14:41;9.30;99.90
53876;DHT22;39789;53.216;5.624;2022-09-28T06:17:06;9.40;99.90
53876;DHT22;39789;53.216;5.624;2022-09-28T06:19:32;9.40;99.90
53876;DHT22;39789;53.216;5.624;2022-09-28T06:21:57;9.50;99.90
53876;DHT22;39789;53.216;5.624;2022-09-28T06:24:23;9.90;99.90
53876;DHT22;39789;53.216;5.624;2022-09-28T06:26:49;10.60;99.90
53876;DHT22;39789;53.216;5.624;2022-09-28T06:29:14;10.90;99.90
53876;DHT22;39789;53.216;5.624;2022-09-28T06:31:44;10.90;99.90
53876;DHT22;39789;53.216;5.624;2022-09-28T06:34:10;10.80;99.90
53876;DHT22;39789;53.216;5.624;2022-09-28T06:36:37;10.70;99.90
53876;DHT22;39789;53.216;5.624;2022-09-28T06:39:03;10.70;99.90
53876;DHT22;39789;53.216;5.624;2022-09-28T06:41:29;10.60;99.90
53876;DHT22;39789;53.216;5.624;2022-09-28T06:43:55;10.50;99.90
53876;DHT22;39789;53.216;5.624;2022-09-28T06:46:21;10.40;99.90
53876;DHT22;39789;53.216;5.624;2022-09-28T06:48:46;10.40;99.90
53876;DHT22;39789;53.216;5.624;2022-09-28T06:51:12;10.30;99.90
53876;DHT22;39789;53.216;5.624;2022-09-28T06:53:38;10.30;99.90
53876;DHT22;39789;53.216;5.624;2022-09-28T06:56:03;10.30;99.90
53876;DHT22;39789;53.216;5.624;2022-09-28T06:58:31;10.40;99.90
53876;DHT22;39789;53.216;5.624;2022-09-28T07:00:56;10.30;99.90
53876;DHT22;39789;53.216;5.624;2022-09-28T07:03:25;10.30;99.90
53876;DHT22;39789;53.216;5.624;2022-09-28T07:05:53;10.40;99.90
53876;DHT22;39789;53.216;5.624;2022-09-28T07:08:23;10.70;99.90
53876;DHT22;39789;53.216;5.624;2022-09-28T07:10:50;11.20;99.90
53876;DHT22;39789;53.216;5.624;2022-09-28T07:13:25;11.90;99.90
53876;DHT22;39789;53.216;5.624;2022-09-28T07:15:55;12.80;99.90
53876;DHT22;39789;53.216;5.624;2022-09-28T07:18:21;13.70;99.90
53876;DHT22;39789;53.216;5.624;2022-09-28T07:20:48;14.50;99.90
53876;DHT22;39789;53.216;5.624;2022-09-28T07:23:14;15.20;99.90
53876;DHT22;39789;53.216;5.624;2022-09-28T07:25:40;15.70;99.90
53876;DHT22;39789;53.216;5.624;2022-09-28T07:28:10;16.20;99.90
53876;DHT22;39789;53.216;5.624;2022-09-28T07:30:36;16.60;99.90
53876;DHT22;39789;53.216;5.624;2022-09-28T07:33:03;17.00;99.90
53876;DHT22;39789;53.216;5.624;2022-09-28T07:35:30;17.30;99.90
53876;DHT22;39789;53.216;5.624;2022-09-28T07:38:05;17.50;99.90
53876;DHT22;39789;53.216;5.624;2022-09-28T07:40:32;17.70;99.90
53876;DHT22;39789;53.216;5.624;2022-09-28T07:43:18;17.90;99.90
53876;DHT22;39789;53.216;5.624;2022-09-28T07:45:49;17.80;99.90
53876;DHT22;39789;53.216;5.624;2022-09-28T07:48:17;17.00;99.90
53876;DHT22;39789;53.216;5.624;2022-09-28T07:50:51;16.00;99.90
53876;DHT22;39789;53.216;5.624;2022-09-28T07:53:18;15.30;99.90
53876;DHT22;39789;53.216;5.624;2022-09-28T07:55:59;14.60;99.90
53876;DHT22;39789;53.216;5.624;2022-09-28T07:58:37;14.20;99.90
53876;DHT22;39789;53.216;5.624;2022-09-28T08:01:08;13.80;99.90
53876;DHT22;39789;53.216;5.624;2022-09-28T08:03:35;13.50;99.90
53876;DHT22;39789;53.216;5.624;2022-09-28T08:06:03;13.30;99.90
53876;DHT22;39789;53.216;5.624;2022-09-28T08:08:29;13.10;99.90
53876;DHT22;39789;53.216;5.624;2022-09-28T08:10:56;13.00;99.90
53876;DHT22;39789;53.216;5.624;2022-09-28T08:13:22;12.80;99.90
53876;DHT22;39789;53.216;5.624;2022-09-28T08:15:51;12.80;99.90
53876;DHT22;39789;53.216;5.624;2022-09-28T08:18:17;12.70;99.90
53876;DHT22;39789;53.216;5.624;2022-09-28T08:20:43;12.70;99.90
53876;DHT22;39789;53.216;5.624;2022-09-28T08:23:27;12.70;99.90
53876;DHT22;39789;53.216;5.624;2022-09-28T08:25:53;12.70;99.90
53876;DHT22;39789;53.216;5.624;2022-09-28T08:28:20;12.60;99.90
53876;DHT22;39789;53.216;5.624;2022-09-28T08:30:47;12.60;99.90
53876;DHT22;39789;53.216;5.624;2022-09-28T08:33:14;12.70;99.90
53876;DHT22;39789;53.216;5.624;2022-09-28T08:35:40;12.60;99.90
53876;DHT22;39789;53.216;5.624;2022-09-28T08:38:07;12.60;99.90
53876;DHT22;39789;53.216;5.624;2022-09-28T08:40:47;12.60;99.90
53876;DHT22;39789;53.216;5.624;2022-09-28T08:45:58;12.60;99.90
53876;DHT22;39789;53.216;5.624;2022-09-28T08:48:29;12.60;99.90
53876;DHT22;39789;53.216;5.624;2022-09-28T08:51:16;12.60;99.90
53876;DHT22;39789;53.216;5.624;2022-09-28T08:57:19;12.70;99.90
53876;DHT22;39789;53.216;5.624;2022-09-28T08:59:50;12.70;99.90
53876;DHT22;39789;53.216;5.624;2022-09-28T09:02:21;12.70;99.90
53876;DHT22;39789;53.216;5.624;2022-09-28T09:05:10;12.70;99.90
53876;DHT22;39789;53.216;5.624;2022-09-28T09:08:10;12.80;99.90
53876;DHT22;39789;53.216;5.624;2022-09-28T09:11:01;12.80;99.90
53876;DHT22;39789;53.216;5.624;2022-09-28T09:21:40;13.00;99.90
53876;DHT22;39789;53.216;5.624;2022-09-28T09:24:23;13.00;99.90
53876;DHT22;39789;53.216;5.624;2022-09-28T09:27:05;13.00;99.90
53876;DHT22;39789;53.216;5.624;2022-09-28T09:38:38;13.10;99.90
53876;DHT22;39789;53.216;5.624;2022-09-28T09:41:24;13.10;99.90
53876;DHT22;39789;53.216;5.624;2022-09-28T09:44:19;13.10;99.90
53876;DHT22;39789;53.216;5.624;2022-09-28T09:46:53;13.10;99.90
53876;DHT22;39789;53.216;5.624;2022-09-28T09:49:35;13.10;99.90
53876;DHT22;39789;53.216;5.624;2022-09-28T09:52:15;13.10;99.90
53876;DHT22;39789;53.216;5.624;2022-09-28T09:57:20;13.20;99.90
53876;DHT22;39789;53.216;5.624;2022-09-28T09:59:48;13.20;99.90
53876;DHT22;39789;53.216;5.624;2022-09-28T10:02:27;13.30;99.90
53876;DHT22;39789;53.216;5.624;2022-09-28T10:05:00;13.40;99.90
53876;DHT22;39789;53.216;5.624;2022-09-28T10:07:37;13.50;99.90
53876;DHT22;39789;53.216;5.624;2022-09-28T10:10:11;13.60;99.90
53876;DHT22;39789;53.216;5.624;2022-09-28T10:12:38;13.70;99.90
53876;DHT22;39789;53.216;5.624;2022-09-28T10:15:05;13.70;99.90
53876;DHT22;39789;53.216;5.624;2022-09-28T10:17:32;13.80;99.90
53876;DHT22;39789;53.216;5.624;2022-09-28T10:20:00;13.80;99.90
53876;DHT22;39789;53.216;5.624;2022-09-28T10:22:25;13.80;99.90
53876;DHT22;39789;53.216;5.624;2022-09-28T10:24:54;13.70;99.90
53876;DHT22;39789;53.216;5.624;2022-09-28T10:27:29;13.70;99.90
53876;DHT22;39789;53.216;5.624;2022-09-28T10:33:37;14.00;99.90
53876;DHT22;39789;53.216;5.624;2022-09-28T10:36:05;14.10;99.90
53876;DHT22;39789;53.216;5.624;2022-09-28T10:38:32;14.20;99.90
53876;DHT22;39789;53.216;5.624;2022-09-28T10:40:59;14.10;99.90
53876;DHT22;39789;53.216;5.624;2022-09-28T10:43:53;13.90;99.90
53876;DHT22;39789;53.216;5.624;2022-09-28T10:46:34;13.70;99.90
53876;DHT22;39789;53.216;5.624;2022-09-28T10:49:14;13.50;99.90
53876;DHT22;39789;53.216;5.624;2022-09-28T10:51:43;13.40;99.90
53876;DHT22;39789;53.216;5.624;2022-09-28T10:56:42;13.20;99.90
53876;DHT22;39789;53.216;5.624;2022-09-28T11:01:58;13.40;99.90
53876;DHT22;39789;53.216;5.624;2022-09-28T11:04:27;13.50;99.90
53876;DHT22;39789;53.216;5.624;2022-09-28T11:06:55;13.70;99.90
53876;DHT22;39789;53.216;5.624;2022-09-28T11:09:28;13.80;99.90
53876;DHT22;39789;53.216;5.624;2022-09-28T11:11:55;13.90;99.90
53876;DHT22;39789;53.216;5.624;2022-09-28T11:14:33;14.00;99.90
53876;DHT22;39789;53.216;5.624;2022-09-28T11:17:38;14.10;99.90
53876;DHT22;39789;53.216;5.624;2022-09-28T11:20:33;14.20;99.90
53876;DHT22;39789;53.216;5.624;2022-09-28T11:23:18;14.30;99.90
53876;DHT22;39789;53.216;5.624;2022-09-28T11:26:05;14.30;99.90
53876;DHT22;39789;53.216;5.624;2022-09-28T11:28:51;14.40;99.90
53876;DHT22;39789;53.216;5.624;2022-09-28T11:31:24;14.40;99.90
53876;DHT22;39789;53.216;5.624;2022-09-28T11:33:50;14.50;99.90
53876;DHT22;39789;53.216;5.624;2022-09-28T11:36:38;14.60;99.90
53876;DHT22;39789;53.216;5.624;2022-09-28T11:39:26;14.70;99.90
53876;DHT22;39789;53.216;5.624;2022-09-28T11:50:06;14.90;99.90
53876;DHT22;39789;53.216;5.624;2022-09-28T11:56:36;14.80;99.90
53876;DHT22;39789;53.216;5.624;2022-09-28T11:59:20;14.70;99.90
53876;DHT22;39789;53.216;5.624;2022-09-28T12:01:57;14.70;99.90
53876;DHT22;39789;53.216;5.624;2022-09-28T12:04:54;14.60;99.90
53876;DHT22;39789;53.216;5.624;2022-09-28T12:07:37;14.40;99.90
53876;DHT22;39789;53.216;5.624;2022-09-28T12:15:14;14.20;99.90
53876;DHT22;39789;53.216;5.624;2022-09-28T12:17:46;14.20;99.90
53876;DHT22;39789;53.216;5.624;2022-09-28T12:20:19;14.20;99.90
53876;DHT22;39789;53.216;5.624;2022-09-28T12:25:28;14.20;99.90
53876;DHT22;39789;53.216;5.624;2022-09-28T12:28:05;14.20;99.90
53876;DHT22;39789;53.216;5.624;2022-09-28T12:30:36;14.10;99.90
53876;DHT22;39789;53.216;5.624;2022-09-28T12:33:13;14.10;99.90
53876;DHT22;39789;53.216;5.624;2022-09-28T12:43:56;14.00;99.90
53876;DHT22;39789;53.216;5.624;2022-09-28T12:49:38;13.90;99.90
53876;DHT22;39789;53.216;5.624;2022-09-28T13:00:53;14.10;99.90
53876;DHT22;39789;53.216;5.624;2022-09-28T13:04:01;14.20;99.90
53876;DHT22;39789;53.216;5.624;2022-09-28T13:09:22;14.30;99.90
53876;DHT22;39789;53.216;5.624;2022-09-28T13:12:09;14.40;99.90
53876;DHT22;39789;53.216;5.624;2022-09-28T13:17:57;14.50;99.90
53876;DHT22;39789;53.216;5.624;2022-09-28T13:20:34;14.50;99.90
53876;DHT22;39789;53.216;5.624;2022-09-28T13:23:12;14.60;99.90
53876;DHT22;39789;53.216;5.624;2022-09-28T13:25:56;14.60;99.90
53876;DHT22;39789;53.216;5.624;2022-09-28T13:28:24;14.70;99.90
53876;DHT22;39789;53.216;5.624;2022-09-28T13:30:54;14.70;99.90
53876;DHT22;39789;53.216;5.624;2022-09-28T13:33:29;14.70;99.90
53876;DHT22;39789;53.216;5.624;2022-09-28T13:35:55;14.70;99.90
53876;DHT22;39789;53.216;5.624;2022-09-28T13:43:40;14.80;99.90
53876;DHT22;39789;53.216;5.624;2022-09-28T13:49:58;15.00;99.90
53876;DHT22;39789;53.216;5.624;2022-09-28T13:55:21;15.00;99.90
53876;DHT22;39789;53.216;5.624;2022-09-28T14:00:24;15.00;99.90
53876;DHT22;39789;53.216;5.624;2022-09-28T14:03:52;14.90;99.90
53876;DHT22;39789;53.216;5.624;2022-09-28T14:06:08;15.00;99.90
53876;DHT22;39789;53.216;5.624;2022-09-28T14:16:31;15.00;99.90
53876;DHT22;39789;53.216;5.624;2022-09-28T14:19:15;15.00;99.90
53876;DHT22;39789;53.216;5.624;2022-09-28T14:21:54;15.00;99.90
53876;DHT22;39789;53.216;5.624;2022-09-28T14:29:54;15.00;99.90
53876;DHT22;39789;53.216;5.624;2022-09-28T14:32:32;15.00;99.90
53876;DHT22;39789;53.216;5.624;2022-09-28T14:35:03;15.00;99.90
53876;DHT22;39789;53.216;5.624;2022-09-28T14:37:35;15.00;99.90
53876;DHT22;39789;53.216;5.624;2022-09-28T14:40:26;15.10;99.90
53876;DHT22;39789;53.216;5.624;2022-09-28T14:51:56;15.00;99.90
53876;DHT22;39789;53.216;5.624;2022-09-28T14:54:34;15.00;99.90
53876;DHT22;39789;53.216;5.624;2022-09-28T14:59:30;15.00;99.90
53876;DHT22;39789;53.216;5.624;2022-09-28T15:04:44;15.00;99.90
53876;DHT22;39789;53.216;5.624;2022-09-28T15:07:28;15.00;99.90
53876;DHT22;39789;53.216;5.624;2022-09-28T15:09:58;15.00;99.90
53876;DHT22;39789;53.216;5.624;2022-09-28T15:12:29;15.00;99.90
53876;DHT22;39789;53.216;5.624;2022-09-28T15:15:00;15.00;99.90
53876;DHT22;39789;53.216;5.624;2022-09-28T15:17:39;15.00;99.90
53876;DHT22;39789;53.216;5.624;2022-09-28T15:22:53;14.90;99.90
53876;DHT22;39789;53.216;5.624;2022-09-28T15:25:30;14.70;99.90
53876;DHT22;39789;53.216;5.624;2022-09-28T15:27:59;14.40;99.90
53876;DHT22;39789;53.216;5.624;2022-09-28T15:30:33;14.30;99.90
53876;DHT22;39789;53.216;5.624;2022-09-28T15:33:00;14.10;99.90
53876;DHT22;39789;53.216;5.624;2022-09-28T15:35:46;13.90;99.90
53876;DHT22;39789;53.216;5.624;2022-09-28T15:38:14;13.80;99.90
53876;DHT22;39789;53.216;5.624;2022-09-28T15:40:43;13.60;99.90
53876;DHT22;39789;53.216;5.624;2022-09-28T15:43:27;13.60;99.90
53876;DHT22;39789;53.216;5.624;2022-09-28T15:46:02;13.60;99.90
53876;DHT22;39789;53.216;5.624;2022-09-28T15:48:46;13.50;99.90
53876;DHT22;39789;53.216;5.624;2022-09-28T15:54:37;13.50;99.90
53876;DHT22;39789;53.216;5.624;2022-09-28T15:57:30;13.40;99.90
53876;DHT22;39789;53.216;5.624;2022-09-28T15:59:57;13.30;99.90
53876;DHT22;39789;53.216;5.624;2022-09-28T16:02:24;13.20;99.90
53876;DHT22;39789;53.216;5.624;2022-09-28T16:04:51;13.20;99.90
53876;DHT22;39789;53.216;5.624;2022-09-28T16:07:38;13.10;99.90
53876;DHT22;39789;53.216;5.624;2022-09-28T16:10:28;13.10;99.90
53876;DHT22;39789;53.216;5.624;2022-09-28T16:12:57;13.00;99.90
53876;DHT22;39789;53.216;5.624;2022-09-28T16:15:34;13.00;99.90
53876;DHT22;39789;53.216;5.624;2022-09-28T16:18:19;12.90;99.90
53876;DHT22;39789;53.216;5.624;2022-09-28T16:20:50;12.90;99.90
53876;DHT22;39789;53.216;5.624;2022-09-28T16:23:31;12.80;99.90
53876;DHT22;39789;53.216;5.624;2022-09-28T16:26:01;12.80;99.90
53876;DHT22;39789;53.216;5.624;2022-09-28T16:31:23;12.80;99.90
53876;DHT22;39789;53.216;5.624;2022-09-28T16:33:52;12.70;99.90
53876;DHT22;39789;53.216;5.624;2022-09-28T16:36:21;12.70;99.90
53876;DHT22;39789;53.216;5.624;2022-09-28T16:38:48;12.70;99.90
53876;DHT22;39789;53.216;5.624;2022-09-28T16:41:15;12.70;99.90
53876;DHT22;39789;53.216;5.624;2022-09-28T16:43:44;12.70;99.90
53876;DHT22;39789;53.216;5.624;2022-09-28T16:46:12;12.70;99.90
53876;DHT22;39789;53.216;5.624;2022-09-28T16:48:42;12.60;99.90
53876;DHT22;39789;53.216;5.624;2022-09-28T16:51:20;12.50;99.90
53876;DHT22;39789;53.216;5.624;2022-09-28T16:53:46;12.40;99.90
53876;DHT22;39789;53.216;5.624;2022-09-28T16:56:32;12.30;99.90
53876;DHT22;39789;53.216;5.624;2022-09-28T16:58:58;12.20;99.90
53876;DHT22;39789;53.216;5.624;2022-09-28T17:01:24;12.20;99.90
53876;DHT22;39789;53.216;5.624;2022-09-28T17:03:50;12.10;99.90
53876;DHT22;39789;53.216;5.624;2022-09-28T17:06:17;12.10;99.90
53876;DHT22;39789;53.216;5.624;2022-09-28T17:08:43;12.00;99.90
53876;DHT22;39789;53.216;5.624;2022-09-28T17:11:15;12.00;99.90
53876;DHT22;39789;53.216;5.624;2022-09-28T17:13:41;11.90;99.90
53876;DHT22;39789;53.216;5.624;2022-09-28T17:16:16;11.80;99.90
53876;DHT22;39789;53.216;5.624;2022-09-28T17:18:43;11.70;99.90
53876;DHT22;39789;53.216;5.624;2022-09-28T17:21:11;11.70;99.90
53876;DHT22;39789;53.216;5.624;2022-09-28T17:23:40;11.60;99.90
53876;DHT22;39789;53.216;5.624;2022-09-28T17:26:05;11.60;99.90
53876;DHT22;39789;53.216;5.624;2022-09-28T17:28:35;11.60;99.90
53876;DHT22;39789;53.216;5.624;2022-09-28T17:31:03;11.50;99.90
53876;DHT22;39789;53.216;5.624;2022-09-28T17:33:28;11.50;99.90
53876;DHT22;39789;53.216;5.624;2022-09-28T17:36:01;11.50;99.90
53876;DHT22;39789;53.216;5.624;2022-09-28T17:38:28;11.40;99.90
53876;DHT22;39789;53.216;5.624;2022-09-28T17:40:54;11.40;99.90
53876;DHT22;39789;53.216;5.624;2022-09-28T17:43:20;11.30;99.90
53876;DHT22;39789;53.216;5.624;2022-09-28T17:45:46;11.20;99.90
53876;DHT22;39789;53.216;5.624;2022-09-28T17:48:14;11.20;99.90
53876;DHT22;39789;53.216;5.624;2022-09-28T17:50:41;11.10;99.90
53876;DHT22;39789;53.216;5.624;2022-09-28T17:53:08;11.10;99.90
53876;DHT22;39789;53.216;5.624;2022-09-28T17:55:34;11.00;99.90
53876;DHT22;39789;53.216;5.624;2022-09-28T18:00:40;10.80;99.90
53876;DHT22;39789;53.216;5.624;2022-09-28T18:03:12;10.80;99.90
53876;DHT22;39789;53.216;5.624;2022-09-28T18:05:38;10.80;99.90
53876;DHT22;39789;53.216;5.624;2022-09-28T18:08:04;10.80;99.90
53876;DHT22;39789;53.216;5.624;2022-09-28T18:10:30;10.70;99.90
53876;DHT22;39789;53.216;5.624;2022-09-28T18:16:36;10.70;99.90
53876;DHT22;39789;53.216;5.624;2022-09-28T18:19:02;10.60;99.90
53876;DHT22;39789;53.216;5.624;2022-09-28T18:21:30;10.60;99.90
53876;DHT22;39789;53.216;5.624;2022-09-28T18:23:56;10.50;99.90
53876;DHT22;39789;53.216;5.624;2022-09-28T18:26:22;10.50;99.90
53876;DHT22;39789;53.216;5.624;2022-09-28T18:28:47;10.50;99.90
53876;DHT22;39789;53.216;5.624;2022-09-28T18:31:14;10.50;99.90
53876;DHT22;39789;53.216;5.624;2022-09-28T18:33:40;10.40;99.90
53876;DHT22;39789;53.216;5.624;2022-09-28T18:36:06;10.40;99.90
53876;DHT22;39789;53.216;5.624;2022-09-28T18:38:36;10.40;99.90
53876;DHT22;39789;53.216;5.624;2022-09-28T18:41:10;10.30;99.90
53876;DHT22;39789;53.216;5.624;2022-09-28T18:43:39;10.30;99.90
53876;DHT22;39789;53.216;5.624;2022-09-28T18:46:09;10.20;99.90